This is the latest recevied weather packets stored in our database for station/object OE6JUE. If no packets are shown the sender has not sent any weather packets the latest 1 day(s).
| Time | Temp. | Humidity | Pressure | Rain* | Wind** | Luminosity | Snow |
|---|---|---|---|---|---|---|---|
| 1778075775 | 22.22° C | 48% | 1010 hPa | 0 mm | - | - | - |
| 1778075476 | 21.67° C | 50% | 1010.2 hPa | 0 mm | - | - | - |
| 1778074857 | 21.67° C | 47% | 1010.1 hPa | 0 mm | - | - | - |
| 1778074256 | 22.22° C | 46% | 1009.9 hPa | 0 mm | - | - | - |
| 1778073356 | 22.78° C | 42% | 1010.1 hPa | 0 mm | - | - | - |
| 1778071856 | 22.78° C | 41% | 1010.3 hPa | 0 mm | - | - | - |
| 1778071556 | 23.33° C | 41% | 1010 hPa | 0 mm | - | - | - |
| 1778069157 | 22.22° C | 44% | 1010.5 hPa | 0 mm | - | - | - |
| 1778068856 | 23.33° C | 41% | 1010.4 hPa | - | - | - | - |
| 1778068256 | 23.33° C | 40% | 1010.5 hPa | 0 mm | - | - | - |
| 1778067956 | 23.33° C | 41% | 1010.5 hPa | 0 mm | - | - | - |
| 1778067656 | 22.22° C | 46% | 1010.7 hPa | 0 mm | - | - | - |
| 1778067356 | 22.22° C | 46% | 1010.7 hPa | 0 mm | - | - | - |
| 1778066456 | 22.22° C | 45% | 1011 hPa | 0 mm | - | - | - |
| 1778066156 | 22.22° C | 45% | 1011 hPa | 0 mm | - | - | - |
| 1778065856 | 21.67° C | 45% | 1010.9 hPa | 0 mm | - | - | - |
| 1778064656 | 21.11° C | 49% | 1011.4 hPa | 0 mm | - | - | - |
| 1778064056 | 21.11° C | 49% | 1011.4 hPa | 0 mm | - | - | - |
| 1778063756 | 21.11° C | 49% | 1011.4 hPa | 0 mm | - | - | - |
| 1778063456 | 21.11° C | 49% | 1011.6 hPa | 0 mm | - | - | - |
| 1778062556 | 21.11° C | 50% | 1011.6 hPa | 0 mm | - | - | - |
| 1778061656 | 21.67° C | 44% | 1011.6 hPa | - | - | - | - |
| 1778060755 | 22.22° C | 42% | 1011.4 hPa | 0 mm | - | - | - |
| 1778059555 | 23.33° C | 35% | 1011.2 hPa | 0 mm | - | - | - |
| 1778058955 | 23.33° C | 35% | 1011.1 hPa | 0 mm | - | - | - |
* Rain latest hour (hover to see other rain measurements)
** Current wind speed in m/s (hover to see current wind gust speed)